sensor_id;sensor_type;location;lat;lon;timestamp;temperature;humidity
19555;DHT22;9924;50.828;6.440;2023-07-30T00:02:06;16.70;99.90
19555;DHT22;9924;50.828;6.440;2023-07-30T00:04:32;16.70;99.90
19555;DHT22;9924;50.828;6.440;2023-07-30T00:06:59;16.60;99.90
19555;DHT22;9924;50.828;6.440;2023-07-30T00:09:25;16.60;99.90
19555;DHT22;9924;50.828;6.440;2023-07-30T00:11:50;16.60;99.90
19555;DHT22;9924;50.828;6.440;2023-07-30T00:14:16;16.50;99.90
19555;DHT22;9924;50.828;6.440;2023-07-30T00:16:42;16.40;99.90
19555;DHT22;9924;50.828;6.440;2023-07-30T00:19:07;16.40;99.90
19555;DHT22;9924;50.828;6.440;2023-07-30T00:21:33;16.40;99.90
19555;DHT22;9924;50.828;6.440;2023-07-30T00:23:59;16.30;99.90
19555;DHT22;9924;50.828;6.440;2023-07-30T00:26:25;16.30;99.90
19555;DHT22;9924;50.828;6.440;2023-07-30T00:28:51;16.20;99.90
19555;DHT22;9924;50.828;6.440;2023-07-30T00:31:17;16.20;99.90
19555;DHT22;9924;50.828;6.440;2023-07-30T00:33:44;16.20;99.90
19555;DHT22;9924;50.828;6.440;2023-07-30T00:36:09;16.20;99.90
19555;DHT22;9924;50.828;6.440;2023-07-30T00:38:35;16.30;99.90
19555;DHT22;9924;50.828;6.440;2023-07-30T00:41:01;16.30;99.90
19555;DHT22;9924;50.828;6.440;2023-07-30T00:43:27;16.30;99.90
19555;DHT22;9924;50.828;6.440;2023-07-30T00:45:53;16.30;99.90
19555;DHT22;9924;50.828;6.440;2023-07-30T00:48:19;16.30;99.90
19555;DHT22;9924;50.828;6.440;2023-07-30T00:50:45;16.30;99.90
19555;DHT22;9924;50.828;6.440;2023-07-30T00:53:12;16.30;99.90
19555;DHT22;9924;50.828;6.440;2023-07-30T00:55:39;16.30;99.90
19555;DHT22;9924;50.828;6.440;2023-07-30T00:58:05;16.30;99.90
19555;DHT22;9924;50.828;6.440;2023-07-30T01:00:31;16.30;99.90
19555;DHT22;9924;50.828;6.440;2023-07-30T01:02:57;16.20;99.90
19555;DHT22;9924;50.828;6.440;2023-07-30T01:05:23;16.20;99.90
19555;DHT22;9924;50.828;6.440;2023-07-30T01:07:49;16.30;99.90
19555;DHT22;9924;50.828;6.440;2023-07-30T01:10:15;16.30;99.90
19555;DHT22;9924;50.828;6.440;2023-07-30T01:12:42;16.30;99.90
19555;DHT22;9924;50.828;6.440;2023-07-30T01:15:09;16.40;99.90
19555;DHT22;9924;50.828;6.440;2023-07-30T01:17:36;16.50;99.90
19555;DHT22;9924;50.828;6.440;2023-07-30T01:20:01;16.50;99.90
19555;DHT22;9924;50.828;6.440;2023-07-30T01:22:28;16.60;99.90
19555;DHT22;9924;50.828;6.440;2023-07-30T01:24:53;16.60;99.90
19555;DHT22;9924;50.828;6.440;2023-07-30T01:27:30;16.70;99.90
19555;DHT22;9924;50.828;6.440;2023-07-30T01:30:08;16.80;99.90
19555;DHT22;9924;50.828;6.440;2023-07-30T01:32:36;16.80;99.90
19555;DHT22;9924;50.828;6.440;2023-07-30T01:35:04;16.80;99.90
19555;DHT22;9924;50.828;6.440;2023-07-30T01:37:32;16.90;99.90
19555;DHT22;9924;50.828;6.440;2023-07-30T01:40:00;16.90;99.90
19555;DHT22;9924;50.828;6.440;2023-07-30T01:42:30;16.90;99.90
19555;DHT22;9924;50.828;6.440;2023-07-30T01:44:56;16.90;99.90
19555;DHT22;9924;50.828;6.440;2023-07-30T01:47:23;16.90;99.90
19555;DHT22;9924;50.828;6.440;2023-07-30T01:49:49;16.90;99.90
19555;DHT22;9924;50.828;6.440;2023-07-30T01:52:15;16.90;99.90
19555;DHT22;9924;50.828;6.440;2023-07-30T01:54:41;16.90;99.90
19555;DHT22;9924;50.828;6.440;2023-07-30T01:57:07;16.90;99.90
19555;DHT22;9924;50.828;6.440;2023-07-30T01:59:33;16.90;99.90
19555;DHT22;9924;50.828;6.440;2023-07-30T02:01:59;16.90;99.90
19555;DHT22;9924;50.828;6.440;2023-07-30T02:04:25;16.90;99.90
19555;DHT22;9924;50.828;6.440;2023-07-30T02:06:51;16.90;99.90
19555;DHT22;9924;50.828;6.440;2023-07-30T02:09:16;16.90;99.90
19555;DHT22;9924;50.828;6.440;2023-07-30T02:11:42;16.90;99.90
19555;DHT22;9924;50.828;6.440;2023-07-30T02:14:09;16.90;99.90
19555;DHT22;9924;50.828;6.440;2023-07-30T02:16:35;16.90;99.90
19555;DHT22;9924;50.828;6.440;2023-07-30T02:19:01;17.00;99.90
19555;DHT22;9924;50.828;6.440;2023-07-30T02:21:27;17.00;99.90
19555;DHT22;9924;50.828;6.440;2023-07-30T02:23:53;17.00;99.90
19555;DHT22;9924;50.828;6.440;2023-07-30T02:26:19;17.00;99.90
19555;DHT22;9924;50.828;6.440;2023-07-30T02:28:44;17.00;99.90
19555;DHT22;9924;50.828;6.440;2023-07-30T02:31:10;17.10;99.90
19555;DHT22;9924;50.828;6.440;2023-07-30T02:33:36;17.10;99.90
19555;DHT22;9924;50.828;6.440;2023-07-30T02:36:01;17.10;99.90
19555;DHT22;9924;50.828;6.440;2023-07-30T02:38:27;17.10;99.90
19555;DHT22;9924;50.828;6.440;2023-07-30T02:40:53;17.10;99.90
19555;DHT22;9924;50.828;6.440;2023-07-30T02:43:19;17.10;99.90
19555;DHT22;9924;50.828;6.440;2023-07-30T02:45:47;17.10;99.90
19555;DHT22;9924;50.828;6.440;2023-07-30T02:48:13;17.10;99.90
19555;DHT22;9924;50.828;6.440;2023-07-30T02:50:39;17.10;99.90
19555;DHT22;9924;50.828;6.440;2023-07-30T02:53:04;17.00;99.90
19555;DHT22;9924;50.828;6.440;2023-07-30T02:55:30;17.10;99.90
19555;DHT22;9924;50.828;6.440;2023-07-30T02:57:57;17.00;99.90
19555;DHT22;9924;50.828;6.440;2023-07-30T03:00:22;17.00;99.90
19555;DHT22;9924;50.828;6.440;2023-07-30T03:02:48;17.00;99.90
19555;DHT22;9924;50.828;6.440;2023-07-30T03:05:14;17.00;99.90
19555;DHT22;9924;50.828;6.440;2023-07-30T03:07:39;17.00;99.90
19555;DHT22;9924;50.828;6.440;2023-07-30T03:10:06;17.00;99.90
19555;DHT22;9924;50.828;6.440;2023-07-30T03:12:31;17.00;99.90
19555;DHT22;9924;50.828;6.440;2023-07-30T03:14:57;17.00;99.90
19555;DHT22;9924;50.828;6.440;2023-07-30T03:17:25;17.00;99.90
19555;DHT22;9924;50.828;6.440;2023-07-30T03:19:51;17.00;99.90
19555;DHT22;9924;50.828;6.440;2023-07-30T03:22:16;16.90;99.90
19555;DHT22;9924;50.828;6.440;2023-07-30T03:24:42;16.90;99.90
19555;DHT22;9924;50.828;6.440;2023-07-30T03:27:09;16.90;99.90
19555;DHT22;9924;50.828;6.440;2023-07-30T03:29:34;16.70;99.90
19555;DHT22;9924;50.828;6.440;2023-07-30T03:32:01;16.70;99.90
19555;DHT22;9924;50.828;6.440;2023-07-30T03:34:27;16.60;99.90
19555;DHT22;9924;50.828;6.440;2023-07-30T03:36:53;16.60;99.90
19555;DHT22;9924;50.828;6.440;2023-07-30T03:39:18;16.50;99.90
19555;DHT22;9924;50.828;6.440;2023-07-30T03:41:44;16.50;99.90
19555;DHT22;9924;50.828;6.440;2023-07-30T03:44:10;16.50;99.90
19555;DHT22;9924;50.828;6.440;2023-07-30T03:46:35;16.50;99.90
19555;DHT22;9924;50.828;6.440;2023-07-30T03:49:01;16.50;99.90
19555;DHT22;9924;50.828;6.440;2023-07-30T03:51:27;16.50;99.90
19555;DHT22;9924;50.828;6.440;2023-07-30T03:53:53;16.50;99.90
19555;DHT22;9924;50.828;6.440;2023-07-30T03:56:18;16.50;99.90
19555;DHT22;9924;50.828;6.440;2023-07-30T03:58:44;16.50;99.90
19555;DHT22;9924;50.828;6.440;2023-07-30T04:01:10;16.50;99.90
19555;DHT22;9924;50.828;6.440;2023-07-30T04:03:37;16.50;99.90
19555;DHT22;9924;50.828;6.440;2023-07-30T04:06:03;16.50;99.90
19555;DHT22;9924;50.828;6.440;2023-07-30T04:08:29;16.50;99.90
19555;DHT22;9924;50.828;6.440;2023-07-30T04:10:55;16.50;99.90
19555;DHT22;9924;50.828;6.440;2023-07-30T04:13:21;16.50;99.90
19555;DHT22;9924;50.828;6.440;2023-07-30T04:15:49;16.50;99.90
19555;DHT22;9924;50.828;6.440;2023-07-30T04:18:15;16.50;99.90
19555;DHT22;9924;50.828;6.440;2023-07-30T04:20:41;16.50;99.90
19555;DHT22;9924;50.828;6.440;2023-07-30T04:23:07;16.50;99.90
19555;DHT22;9924;50.828;6.440;2023-07-30T04:25:33;16.50;99.90
19555;DHT22;9924;50.828;6.440;2023-07-30T04:27:59;16.50;99.90
19555;DHT22;9924;50.828;6.440;2023-07-30T04:30:25;16.50;99.90
19555;DHT22;9924;50.828;6.440;2023-07-30T04:32:50;16.50;99.90
19555;DHT22;9924;50.828;6.440;2023-07-30T04:35:16;16.50;99.90
19555;DHT22;9924;50.828;6.440;2023-07-30T04:37:42;16.50;99.90
19555;DHT22;9924;50.828;6.440;2023-07-30T04:40:08;16.50;99.90
19555;DHT22;9924;50.828;6.440;2023-07-30T04:42:34;16.50;99.90
19555;DHT22;9924;50.828;6.440;2023-07-30T04:45:00;16.50;99.90
19555;DHT22;9924;50.828;6.440;2023-07-30T04:47:26;16.50;99.90
19555;DHT22;9924;50.828;6.440;2023-07-30T04:49:52;16.60;99.90
19555;DHT22;9924;50.828;6.440;2023-07-30T04:52:19;16.60;99.90
19555;DHT22;9924;50.828;6.440;2023-07-30T04:54:45;16.60;99.90
19555;DHT22;9924;50.828;6.440;2023-07-30T04:57:11;16.60;99.90
19555;DHT22;9924;50.828;6.440;2023-07-30T04:59:37;16.60;99.90
19555;DHT22;9924;50.828;6.440;2023-07-30T05:02:02;16.60;99.90
19555;DHT22;9924;50.828;6.440;2023-07-30T05:04:29;16.70;99.90
19555;DHT22;9924;50.828;6.440;2023-07-30T05:06:55;16.70;99.90
19555;DHT22;9924;50.828;6.440;2023-07-30T05:09:21;16.70;99.90
19555;DHT22;9924;50.828;6.440;2023-07-30T05:11:47;16.70;99.90
19555;DHT22;9924;50.828;6.440;2023-07-30T05:14:12;16.70;99.90
19555;DHT22;9924;50.828;6.440;2023-07-30T05:16:38;16.70;99.90
19555;DHT22;9924;50.828;6.440;2023-07-30T05:19:05;16.70;99.90
19555;DHT22;9924;50.828;6.440;2023-07-30T05:21:31;16.70;99.90
19555;DHT22;9924;50.828;6.440;2023-07-30T05:23:56;16.60;99.90
19555;DHT22;9924;50.828;6.440;2023-07-30T05:26:22;16.60;99.90
19555;DHT22;9924;50.828;6.440;2023-07-30T05:28:48;16.60;99.90
19555;DHT22;9924;50.828;6.440;2023-07-30T05:31:14;16.50;99.90
19555;DHT22;9924;50.828;6.440;2023-07-30T05:33:40;16.50;99.90
19555;DHT22;9924;50.828;6.440;2023-07-30T05:36:05;16.50;99.90
19555;DHT22;9924;50.828;6.440;2023-07-30T05:38:32;16.50;99.90
19555;DHT22;9924;50.828;6.440;2023-07-30T05:40:57;16.50;99.90
19555;DHT22;9924;50.828;6.440;2023-07-30T05:43:23;16.60;99.90
19555;DHT22;9924;50.828;6.440;2023-07-30T05:45:49;16.60;99.90
19555;DHT22;9924;50.828;6.440;2023-07-30T05:48:16;16.60;99.90
19555;DHT22;9924;50.828;6.440;2023-07-30T05:50:42;16.70;99.90
19555;DHT22;9924;50.828;6.440;2023-07-30T05:53:08;16.70;99.90
19555;DHT22;9924;50.828;6.440;2023-07-30T05:55:33;16.80;99.90
19555;DHT22;9924;50.828;6.440;2023-07-30T05:57:59;16.90;99.90
19555;DHT22;9924;50.828;6.440;2023-07-30T06:00:25;16.90;99.90
19555;DHT22;9924;50.828;6.440;2023-07-30T06:02:50;16.90;99.90
19555;DHT22;9924;50.828;6.440;2023-07-30T06:05:16;16.90;99.90
19555;DHT22;9924;50.828;6.440;2023-07-30T06:07:42;16.90;99.90
19555;DHT22;9924;50.828;6.440;2023-07-30T06:10:08;16.80;99.90
19555;DHT22;9924;50.828;6.440;2023-07-30T06:12:34;16.80;99.90
19555;DHT22;9924;50.828;6.440;2023-07-30T06:14:59;16.80;99.90
19555;DHT22;9924;50.828;6.440;2023-07-30T06:17:25;16.80;99.90
19555;DHT22;9924;50.828;6.440;2023-07-30T06:19:51;16.90;99.90
19555;DHT22;9924;50.828;6.440;2023-07-30T06:22:16;16.90;99.90
19555;DHT22;9924;50.828;6.440;2023-07-30T06:24:44;17.00;99.90
19555;DHT22;9924;50.828;6.440;2023-07-30T06:27:09;16.90;99.90
19555;DHT22;9924;50.828;6.440;2023-07-30T06:29:36;16.90;99.90
19555;DHT22;9924;50.828;6.440;2023-07-30T06:32:01;16.90;99.90
19555;DHT22;9924;50.828;6.440;2023-07-30T06:34:27;17.00;99.90
19555;DHT22;9924;50.828;6.440;2023-07-30T06:36:53;17.00;99.90
19555;DHT22;9924;50.828;6.440;2023-07-30T06:39:19;17.00;99.90
19555;DHT22;9924;50.828;6.440;2023-07-30T06:41:45;17.00;99.90
19555;DHT22;9924;50.828;6.440;2023-07-30T06:44:11;17.10;99.90
19555;DHT22;9924;50.828;6.440;2023-07-30T06:46:37;17.10;99.90
19555;DHT22;9924;50.828;6.440;2023-07-30T06:49:02;17.10;99.90
19555;DHT22;9924;50.828;6.440;2023-07-30T06:51:28;17.20;99.90
19555;DHT22;9924;50.828;6.440;2023-07-30T06:53:55;17.20;99.90
19555;DHT22;9924;50.828;6.440;2023-07-30T06:56:20;17.30;99.90
19555;DHT22;9924;50.828;6.440;2023-07-30T06:58:46;17.30;99.90
19555;DHT22;9924;50.828;6.440;2023-07-30T07:01:13;17.20;99.90
19555;DHT22;9924;50.828;6.440;2023-07-30T07:03:39;17.30;99.90
19555;DHT22;9924;50.828;6.440;2023-07-30T07:06:04;17.40;99.90
19555;DHT22;9924;50.828;6.440;2023-07-30T07:08:30;17.40;99.90
19555;DHT22;9924;50.828;6.440;2023-07-30T07:10:56;17.50;99.90
19555;DHT22;9924;50.828;6.440;2023-07-30T07:13:23;17.50;99.90
19555;DHT22;9924;50.828;6.440;2023-07-30T07:15:48;17.50;99.90
19555;DHT22;9924;50.828;6.440;2023-07-30T07:18:14;17.50;99.90
19555;DHT22;9924;50.828;6.440;2023-07-30T07:20:40;17.50;99.90
19555;DHT22;9924;50.828;6.440;2023-07-30T07:23:06;17.60;99.90
19555;DHT22;9924;50.828;6.440;2023-07-30T07:25:31;17.60;99.90
19555;DHT22;9924;50.828;6.440;2023-07-30T07:27:57;17.60;99.90
19555;DHT22;9924;50.828;6.440;2023-07-30T07:30:23;17.60;99.90
19555;DHT22;9924;50.828;6.440;2023-07-30T07:32:49;17.50;99.90
19555;DHT22;9924;50.828;6.440;2023-07-30T07:35:19;17.50;99.90
19555;DHT22;9924;50.828;6.440;2023-07-30T07:37:46;17.30;99.90
19555;DHT22;9924;50.828;6.440;2023-07-30T07:40:12;17.20;99.90
19555;DHT22;9924;50.828;6.440;2023-07-30T07:42:38;17.20;99.90
19555;DHT22;9924;50.828;6.440;2023-07-30T07:45:06;17.10;99.90
19555;DHT22;9924;50.828;6.440;2023-07-30T07:47:32;17.20;99.90
19555;DHT22;9924;50.828;6.440;2023-07-30T07:49:57;17.30;99.90
19555;DHT22;9924;50.828;6.440;2023-07-30T07:52:23;17.40;99.90
19555;DHT22;9924;50.828;6.440;2023-07-30T07:54:49;17.40;99.90
19555;DHT22;9924;50.828;6.440;2023-07-30T07:57:15;17.50;99.90
19555;DHT22;9924;50.828;6.440;2023-07-30T07:59:41;17.50;99.90
19555;DHT22;9924;50.828;6.440;2023-07-30T08:02:10;17.70;99.90
19555;DHT22;9924;50.828;6.440;2023-07-30T08:04:36;17.80;99.90
19555;DHT22;9924;50.828;6.440;2023-07-30T08:07:02;17.90;99.90
19555;DHT22;9924;50.828;6.440;2023-07-30T08:09:30;17.90;99.90
19555;DHT22;9924;50.828;6.440;2023-07-30T08:11:56;18.00;99.90
19555;DHT22;9924;50.828;6.440;2023-07-30T08:14:22;18.00;99.90
19555;DHT22;9924;50.828;6.440;2023-07-30T08:16:47;18.00;99.90
19555;DHT22;9924;50.828;6.440;2023-07-30T08:19:13;18.00;99.90
19555;DHT22;9924;50.828;6.440;2023-07-30T08:21:39;18.10;99.90
19555;DHT22;9924;50.828;6.440;2023-07-30T08:24:05;18.30;99.90
19555;DHT22;9924;50.828;6.440;2023-07-30T08:26:32;18.40;99.90
19555;DHT22;9924;50.828;6.440;2023-07-30T08:28:58;18.80;99.90
19555;DHT22;9924;50.828;6.440;2023-07-30T08:31:23;19.10;99.90
19555;DHT22;9924;50.828;6.440;2023-07-30T08:33:49;19.30;99.90
19555;DHT22;9924;50.828;6.440;2023-07-30T08:36:15;19.50;99.90
19555;DHT22;9924;50.828;6.440;2023-07-30T08:38:42;19.60;99.90
19555;DHT22;9924;50.828;6.440;2023-07-30T08:41:08;19.60;99.90
19555;DHT22;9924;50.828;6.440;2023-07-30T08:43:35;19.60;99.90
19555;DHT22;9924;50.828;6.440;2023-07-30T08:46:01;19.80;99.90
19555;DHT22;9924;50.828;6.440;2023-07-30T08:48:27;19.90;99.90
19555;DHT22;9924;50.828;6.440;2023-07-30T08:50:56;19.90;99.90
19555;DHT22;9924;50.828;6.440;2023-07-30T08:53:25;19.70;99.90
19555;DHT22;9924;50.828;6.440;2023-07-30T08:55:53;19.40;99.90
19555;DHT22;9924;50.828;6.440;2023-07-30T08:58:21;19.10;99.90
19555;DHT22;9924;50.828;6.440;2023-07-30T09:00:49;18.90;99.90
19555;DHT22;9924;50.828;6.440;2023-07-30T09:03:17;18.80;99.90
19555;DHT22;9924;50.828;6.440;2023-07-30T09:05:44;18.80;99.90
19555;DHT22;9924;50.828;6.440;2023-07-30T09:08:10;18.90;99.90
19555;DHT22;9924;50.828;6.440;2023-07-30T09:10:37;18.80;99.90
19555;DHT22;9924;50.828;6.440;2023-07-30T09:13:03;18.90;99.90
19555;DHT22;9924;50.828;6.440;2023-07-30T09:15:33;19.00;99.90
19555;DHT22;9924;50.828;6.440;2023-07-30T09:18:00;19.20;99.90
19555;DHT22;9924;50.828;6.440;2023-07-30T09:20:26;19.30;99.90
19555;DHT22;9924;50.828;6.440;2023-07-30T09:22:56;19.30;99.90
19555;DHT22;9924;50.828;6.440;2023-07-30T09:25:22;19.10;99.90
19555;DHT22;9924;50.828;6.440;2023-07-30T09:27:51;19.50;99.90
19555;DHT22;9924;50.828;6.440;2023-07-30T09:30:23;20.10;99.90
19555;DHT22;9924;50.828;6.440;2023-07-30T09:32:57;21.00;99.90
19555;DHT22;9924;50.828;6.440;2023-07-30T09:35:24;21.50;99.90
19555;DHT22;9924;50.828;6.440;2023-07-30T09:37:58;21.30;99.90
19555;DHT22;9924;50.828;6.440;2023-07-30T09:40:31;20.80;99.90
19555;DHT22;9924;50.828;6.440;2023-07-30T09:42:58;20.30;99.90
19555;DHT22;9924;50.828;6.440;2023-07-30T09:45:25;19.90;99.90
19555;DHT22;9924;50.828;6.440;2023-07-30T09:47:54;19.80;99.90
19555;DHT22;9924;50.828;6.440;2023-07-30T09:50:22;19.60;99.90
19555;DHT22;9924;50.828;6.440;2023-07-30T09:52:49;19.60;99.90
19555;DHT22;9924;50.828;6.440;2023-07-30T09:55:15;19.60;99.90
19555;DHT22;9924;50.828;6.440;2023-07-30T09:57:41;19.70;99.90
19555;DHT22;9924;50.828;6.440;2023-07-30T10:00:09;19.70;99.90
19555;DHT22;9924;50.828;6.440;2023-07-30T10:02:41;19.60;99.90
19555;DHT22;9924;50.828;6.440;2023-07-30T10:05:14;19.50;99.90
19555;DHT22;9924;50.828;6.440;2023-07-30T10:07:44;19.70;99.90
19555;DHT22;9924;50.828;6.440;2023-07-30T10:10:12;20.40;99.90
19555;DHT22;9924;50.828;6.440;2023-07-30T10:12:41;21.10;99.90
19555;DHT22;9924;50.828;6.440;2023-07-30T10:15:09;21.70;99.90
19555;DHT22;9924;50.828;6.440;2023-07-30T10:17:35;22.40;99.90
19555;DHT22;9924;50.828;6.440;2023-07-30T10:20:25;22.60;99.90
19555;DHT22;9924;50.828;6.440;2023-07-30T10:22:56;22.50;99.90
19555;DHT22;9924;50.828;6.440;2023-07-30T10:25:27;22.10;99.90
19555;DHT22;9924;50.828;6.440;2023-07-30T10:27:53;21.70;99.90
19555;DHT22;9924;50.828;6.440;2023-07-30T10:30:20;21.70;99.90
19555;DHT22;9924;50.828;6.440;2023-07-30T10:35:42;22.00;99.90
19555;DHT22;9924;50.828;6.440;2023-07-30T10:38:19;22.10;99.90
19555;DHT22;9924;50.828;6.440;2023-07-30T10:41:06;22.10;99.90
19555;DHT22;9924;50.828;6.440;2023-07-30T10:43:37;22.00;99.90
19555;DHT22;9924;50.828;6.440;2023-07-30T10:46:04;22.20;99.90
19555;DHT22;9924;50.828;6.440;2023-07-30T10:48:35;22.50;99.90
19555;DHT22;9924;50.828;6.440;2023-07-30T10:51:06;22.90;99.90
19555;DHT22;9924;50.828;6.440;2023-07-30T10:53:32;23.10;99.90
19555;DHT22;9924;50.828;6.440;2023-07-30T10:56:01;23.20;99.90
19555;DHT22;9924;50.828;6.440;2023-07-30T10:58:30;23.40;99.90
19555;DHT22;9924;50.828;6.440;2023-07-30T11:00:58;23.10;99.90
19555;DHT22;9924;50.828;6.440;2023-07-30T11:03:27;23.00;99.90
19555;DHT22;9924;50.828;6.440;2023-07-30T11:05:54;22.70;99.90
19555;DHT22;9924;50.828;6.440;2023-07-30T11:08:42;23.10;99.90
19555;DHT22;9924;50.828;6.440;2023-07-30T11:11:09;23.50;99.90
19555;DHT22;9924;50.828;6.440;2023-07-30T11:13:41;23.40;99.90
19555;DHT22;9924;50.828;6.440;2023-07-30T11:16:10;23.40;99.90
19555;DHT22;9924;50.828;6.440;2023-07-30T11:18:37;24.10;99.90
19555;DHT22;9924;50.828;6.440;2023-07-30T11:21:22;23.60;99.90
19555;DHT22;9924;50.828;6.440;2023-07-30T11:23:50;23.50;99.90
19555;DHT22;9924;50.828;6.440;2023-07-30T11:26:19;23.50;99.90
19555;DHT22;9924;50.828;6.440;2023-07-30T11:28:45;23.30;99.90
19555;DHT22;9924;50.828;6.440;2023-07-30T11:31:16;22.90;99.90
19555;DHT22;9924;50.828;6.440;2023-07-30T11:33:44;22.60;99.90
19555;DHT22;9924;50.828;6.440;2023-07-30T11:36:16;22.40;99.90
19555;DHT22;9924;50.828;6.440;2023-07-30T11:38:42;22.50;99.90
19555;DHT22;9924;50.828;6.440;2023-07-30T11:41:09;22.70;99.90
19555;DHT22;9924;50.828;6.440;2023-07-30T11:43:41;22.90;99.90
19555;DHT22;9924;50.828;6.440;2023-07-30T11:46:17;22.70;99.90
19555;DHT22;9924;50.828;6.440;2023-07-30T11:48:45;22.50;99.90
19555;DHT22;9924;50.828;6.440;2023-07-30T11:51:29;22.20;99.90
19555;DHT22;9924;50.828;6.440;2023-07-30T11:56:26;21.60;99.90
19555;DHT22;9924;50.828;6.440;2023-07-30T11:59:00;21.50;99.90
19555;DHT22;9924;50.828;6.440;2023-07-30T12:01:30;21.50;99.90
19555;DHT22;9924;50.828;6.440;2023-07-30T12:03:57;22.20;99.90
19555;DHT22;9924;50.828;6.440;2023-07-30T12:06:24;22.90;99.90
19555;DHT22;9924;50.828;6.440;2023-07-30T12:08:50;23.30;99.90
19555;DHT22;9924;50.828;6.440;2023-07-30T12:11:18;23.20;99.90
19555;DHT22;9924;50.828;6.440;2023-07-30T12:13:47;23.10;99.90
19555;DHT22;9924;50.828;6.440;2023-07-30T12:16:13;23.00;99.90
19555;DHT22;9924;50.828;6.440;2023-07-30T12:18:39;22.80;99.90
19555;DHT22;9924;50.828;6.440;2023-07-30T12:21:06;22.30;99.90
19555;DHT22;9924;50.828;6.440;2023-07-30T12:23:34;21.90;99.90
19555;DHT22;9924;50.828;6.440;2023-07-30T12:26:00;21.70;99.90
19555;DHT22;9924;50.828;6.440;2023-07-30T12:28:27;21.60;99.90
19555;DHT22;9924;50.828;6.440;2023-07-30T12:30:53;21.70;99.90
19555;DHT22;9924;50.828;6.440;2023-07-30T12:33:19;21.70;99.90
19555;DHT22;9924;50.828;6.440;2023-07-30T12:35:46;21.70;99.90
19555;DHT22;9924;50.828;6.440;2023-07-30T12:38:11;21.70;99.90
19555;DHT22;9924;50.828;6.440;2023-07-30T12:40:37;21.80;99.90
19555;DHT22;9924;50.828;6.440;2023-07-30T12:43:03;22.00;99.90
19555;DHT22;9924;50.828;6.440;2023-07-30T12:45:29;21.90;99.90
19555;DHT22;9924;50.828;6.440;2023-07-30T12:47:55;22.00;99.90
19555;DHT22;9924;50.828;6.440;2023-07-30T12:50:21;21.90;99.90
19555;DHT22;9924;50.828;6.440;2023-07-30T12:52:47;22.10;99.90
19555;DHT22;9924;50.828;6.440;2023-07-30T12:55:12;22.10;99.90
19555;DHT22;9924;50.828;6.440;2023-07-30T12:57:38;22.00;99.90
19555;DHT22;9924;50.828;6.440;2023-07-30T13:00:04;21.90;99.90
19555;DHT22;9924;50.828;6.440;2023-07-30T13:02:31;21.80;99.90
19555;DHT22;9924;50.828;6.440;2023-07-30T13:05:00;21.70;99.90
19555;DHT22;9924;50.828;6.440;2023-07-30T13:07:26;21.70;99.90
19555;DHT22;9924;50.828;6.440;2023-07-30T13:10:05;21.70;99.90
19555;DHT22;9924;50.828;6.440;2023-07-30T13:12:32;21.70;99.90
19555;DHT22;9924;50.828;6.440;2023-07-30T13:14:59;22.30;99.90
19555;DHT22;9924;50.828;6.440;2023-07-30T13:17:24;23.40;99.90
19555;DHT22;9924;50.828;6.440;2023-07-30T13:19:50;24.00;99.90
19555;DHT22;9924;50.828;6.440;2023-07-30T13:22:16;24.10;99.90
19555;DHT22;9924;50.828;6.440;2023-07-30T13:24:42;24.10;99.90
19555;DHT22;9924;50.828;6.440;2023-07-30T13:27:08;24.30;99.90
19555;DHT22;9924;50.828;6.440;2023-07-30T13:29:34;24.70;99.90
19555;DHT22;9924;50.828;6.440;2023-07-30T13:31:59;24.90;99.90
19555;DHT22;9924;50.828;6.440;2023-07-30T13:34:25;24.90;99.90
19555;DHT22;9924;50.828;6.440;2023-07-30T13:36:51;25.40;99.90
19555;DHT22;9924;50.828;6.440;2023-07-30T13:39:16;26.10;99.90
19555;DHT22;9924;50.828;6.440;2023-07-30T13:41:42;26.60;99.90
19555;DHT22;9924;50.828;6.440;2023-07-30T13:44:09;26.70;99.90
19555;DHT22;9924;50.828;6.440;2023-07-30T13:46:37;26.90;99.90
19555;DHT22;9924;50.828;6.440;2023-07-30T13:49:03;27.00;99.90
19555;DHT22;9924;50.828;6.440;2023-07-30T13:51:29;26.80;99.90
19555;DHT22;9924;50.828;6.440;2023-07-30T13:54:01;26.00;99.90
19555;DHT22;9924;50.828;6.440;2023-07-30T13:56:28;25.20;99.90
19555;DHT22;9924;50.828;6.440;2023-07-30T13:58:54;25.30;99.90
19555;DHT22;9924;50.828;6.440;2023-07-30T14:01:20;25.90;99.90
19555;DHT22;9924;50.828;6.440;2023-07-30T14:03:46;26.50;99.90
19555;DHT22;9924;50.828;6.440;2023-07-30T14:06:12;26.50;99.90
19555;DHT22;9924;50.828;6.440;2023-07-30T14:08:38;26.50;99.90
19555;DHT22;9924;50.828;6.440;2023-07-30T14:11:04;26.30;99.90
19555;DHT22;9924;50.828;6.440;2023-07-30T14:13:29;25.70;99.90
19555;DHT22;9924;50.828;6.440;2023-07-30T14:15:55;25.10;99.90
19555;DHT22;9924;50.828;6.440;2023-07-30T14:18:24;24.60;99.90
19555;DHT22;9924;50.828;6.440;2023-07-30T14:20:50;24.10;99.90
19555;DHT22;9924;50.828;6.440;2023-07-30T14:23:15;24.40;99.90
19555;DHT22;9924;50.828;6.440;2023-07-30T14:25:41;25.30;99.90
19555;DHT22;9924;50.828;6.440;2023-07-30T14:28:07;25.60;99.90
19555;DHT22;9924;50.828;6.440;2023-07-30T14:30:33;25.30;99.90
19555;DHT22;9924;50.828;6.440;2023-07-30T14:33:02;25.30;99.90
19555;DHT22;9924;50.828;6.440;2023-07-30T14:35:28;25.60;99.90
19555;DHT22;9924;50.828;6.440;2023-07-30T14:37:54;25.50;99.90
19555;DHT22;9924;50.828;6.440;2023-07-30T14:40:20;25.30;99.90
19555;DHT22;9924;50.828;6.440;2023-07-30T14:42:46;25.40;99.90
19555;DHT22;9924;50.828;6.440;2023-07-30T14:45:12;25.20;99.90
19555;DHT22;9924;50.828;6.440;2023-07-30T14:47:38;24.50;99.90
19555;DHT22;9924;50.828;6.440;2023-07-30T14:50:05;23.80;99.90
19555;DHT22;9924;50.828;6.440;2023-07-30T14:52:32;23.30;99.90
19555;DHT22;9924;50.828;6.440;2023-07-30T14:55:04;23.00;99.90
19555;DHT22;9924;50.828;6.440;2023-07-30T14:57:30;22.70;99.90
19555;DHT22;9924;50.828;6.440;2023-07-30T14:59:56;22.80;99.90
19555;DHT22;9924;50.828;6.440;2023-07-30T15:02:22;23.10;99.90
19555;DHT22;9924;50.828;6.440;2023-07-30T15:04:47;23.80;99.90
19555;DHT22;9924;50.828;6.440;2023-07-30T15:07:13;24.60;99.90
19555;DHT22;9924;50.828;6.440;2023-07-30T15:09:39;24.90;99.90
19555;DHT22;9924;50.828;6.440;2023-07-30T15:12:05;24.60;99.90
19555;DHT22;9924;50.828;6.440;2023-07-30T15:14:32;24.10;99.90
19555;DHT22;9924;50.828;6.440;2023-07-30T15:16:58;23.70;99.90
19555;DHT22;9924;50.828;6.440;2023-07-30T15:19:24;23.20;99.90
19555;DHT22;9924;50.828;6.440;2023-07-30T15:21:50;22.70;99.90
19555;DHT22;9924;50.828;6.440;2023-07-30T15:24:16;22.70;99.90
19555;DHT22;9924;50.828;6.440;2023-07-30T15:26:41;23.60;99.90
19555;DHT22;9924;50.828;6.440;2023-07-30T15:29:07;24.30;99.90
19555;DHT22;9924;50.828;6.440;2023-07-30T15:31:33;24.80;99.90
19555;DHT22;9924;50.828;6.440;2023-07-30T15:33:58;25.40;99.90
19555;DHT22;9924;50.828;6.440;2023-07-30T15:36:27;25.80;99.90
19555;DHT22;9924;50.828;6.440;2023-07-30T15:38:53;25.60;99.90
19555;DHT22;9924;50.828;6.440;2023-07-30T15:41:23;25.80;99.90
19555;DHT22;9924;50.828;6.440;2023-07-30T15:43:49;25.00;99.90
19555;DHT22;9924;50.828;6.440;2023-07-30T15:46:16;24.80;99.90
19555;DHT22;9924;50.828;6.440;2023-07-30T15:48:46;24.30;99.90